createdAt,value
2022-08-28T00:02:03.435Z,23.05
2022-08-28T00:04:30.921Z,16.15
2022-08-28T00:06:58.194Z,22.42
2022-08-28T00:09:25.905Z,20.95
2022-08-28T00:11:53.617Z,21.58
2022-08-28T00:14:22.409Z,19.10
2022-08-28T00:16:50.694Z,18.05
2022-08-28T00:19:19.588Z,21.13
2022-08-28T00:21:46.708Z,17.70
2022-08-28T00:24:14.785Z,17.10
2022-08-28T00:27:01.945Z,18.70
2022-08-28T00:29:30.304Z,19.65
2022-08-28T00:31:57.720Z,17.20
2022-08-28T00:34:32.979Z,19.38
2022-08-28T00:37:01.016Z,18.27
2022-08-28T00:39:28.286Z,23.33
2022-08-28T00:41:57.891Z,20.17
2022-08-28T00:44:27.542Z,21.85
2022-08-28T00:47:00.198Z,20.52
2022-08-28T00:49:32.151Z,21.88
2022-08-28T00:52:11.772Z,20.27
2022-08-28T00:54:41.726Z,20.02
2022-08-28T00:57:28.285Z,24.63
2022-08-28T00:59:56.038Z,25.05
2022-08-28T01:02:23.683Z,25.05
2022-08-28T01:04:51.289Z,24.50
2022-08-28T01:07:19.089Z,20.00
2022-08-28T01:09:51.047Z,23.02
2022-08-28T01:12:21.685Z,21.33
2022-08-28T01:14:52.094Z,21.13
2022-08-28T01:17:23.721Z,21.35
2022-08-28T01:19:58.365Z,18.92
2022-08-28T01:22:30.941Z,22.88
2022-08-28T01:25:00.844Z,19.92
2022-08-28T01:27:28.302Z,20.45
2022-08-28T01:29:55.678Z,29.67
2022-08-28T01:32:40.878Z,18.20
2022-08-28T01:35:13.035Z,20.60
2022-08-28T01:37:40.279Z,24.35
2022-08-28T01:40:12.093Z,22.65
2022-08-28T01:42:41.182Z,20.63
2022-08-28T01:45:11.356Z,25.65
2022-08-28T01:47:39.743Z,21.75
2022-08-28T01:50:09.180Z,19.88
2022-08-28T01:52:36.644Z,23.85
2022-08-28T01:55:06.064Z,20.98
2022-08-28T01:57:33.641Z,23.20
2022-08-28T02:00:00.828Z,22.08
2022-08-28T02:02:28.918Z,19.88
2022-08-28T02:04:56.068Z,22.08
2022-08-28T02:07:23.430Z,19.48
2022-08-28T02:09:50.561Z,20.95
2022-08-28T02:12:17.905Z,24.50
2022-08-28T02:14:45.090Z,17.15
2022-08-28T02:17:12.299Z,19.90
2022-08-28T02:19:39.785Z,17.48
2022-08-28T02:22:08.528Z,21.85
2022-08-28T02:24:36.270Z,20.00
2022-08-28T02:27:04.830Z,18.52
2022-08-28T02:29:32.690Z,21.10
2022-08-28T02:31:59.836Z,22.88
2022-08-28T02:34:28.520Z,19.90
2022-08-28T02:36:56.436Z,21.25
2022-08-28T02:39:23.597Z,25.85
2022-08-28T02:41:50.675Z,18.38
2022-08-28T02:44:20.751Z,19.90
2022-08-28T02:46:48.074Z,21.60
2022-08-28T02:49:15.470Z,22.60
2022-08-28T02:51:42.650Z,18.25
2022-08-28T02:54:09.888Z,17.52
2022-08-28T02:56:37.048Z,22.48
2022-08-28T02:59:04.980Z,20.60
2022-08-28T03:01:34.354Z,20.83
2022-08-28T03:04:03.243Z,17.10
2022-08-28T03:06:30.520Z,15.68
2022-08-28T03:08:58.676Z,17.40
2022-08-28T03:11:26.843Z,23.45
2022-08-28T03:13:55.579Z,18.40
2022-08-28T03:16:25.309Z,17.45
2022-08-28T03:18:52.824Z,22.02
2022-08-28T03:21:19.930Z,21.75
2022-08-28T03:23:47.573Z,26.88
2022-08-28T03:26:18.554Z,36.63
2022-08-28T03:28:50.036Z,25.40
2022-08-28T03:31:20.962Z,24.45
2022-08-28T03:33:48.502Z,36.85
2022-08-28T03:36:19.129Z,31.10
2022-08-28T03:38:48.164Z,28.08
2022-08-28T03:41:17.800Z,20.77
2022-08-28T03:43:45.579Z,21.55
2022-08-28T03:46:15.306Z,27.83
2022-08-28T03:48:44.917Z,20.30
2022-08-28T03:51:16.885Z,20.30
2022-08-28T03:53:45.425Z,18.95
2022-08-28T03:56:16.867Z,42.30
2022-08-28T03:58:44.242Z,26.88
2022-08-28T04:01:11.460Z,39.65
2022-08-28T04:03:38.781Z,21.30
2022-08-28T04:06:06.156Z,24.63
2022-08-28T04:08:33.430Z,17.52
2022-08-28T04:11:01.011Z,31.40
2022-08-28T04:13:28.775Z,23.20
2022-08-28T04:16:00.294Z,21.83
2022-08-28T04:18:29.651Z,17.05
2022-08-28T04:21:03.413Z,17.45
2022-08-28T04:23:30.644Z,19.10
2022-08-28T04:25:58.763Z,13.75
2022-08-28T04:28:26.183Z,18.50
2022-08-28T04:30:54.913Z,31.95
2022-08-28T04:33:24.577Z,27.40
2022-08-28T04:35:53.511Z,17.33
2022-08-28T04:38:20.895Z,12.23
2022-08-28T04:40:48.149Z,50.03
2022-08-28T04:43:15.280Z,16.77
2022-08-28T04:45:44.415Z,11.25
2022-08-28T04:48:13.796Z,21.33
2022-08-28T04:50:45.123Z,32.88
2022-08-28T04:53:13.018Z,13.52
2022-08-28T04:55:54.325Z,25.35
2022-08-28T04:58:23.985Z,12.57
2022-08-28T05:00:54.128Z,16.85
2022-08-28T05:03:21.993Z,17.67
2022-08-28T05:05:53.705Z,13.88
2022-08-28T05:08:26.978Z,12.80
2022-08-28T05:10:55.307Z,12.10
2022-08-28T05:13:23.402Z,16.08
2022-08-28T05:15:52.210Z,12.75
2022-08-28T05:18:22.555Z,12.80
2022-08-28T05:20:49.746Z,13.50
2022-08-28T05:23:17.311Z,18.38
2022-08-28T05:25:47.673Z,13.98
2022-08-28T05:28:18.010Z,13.52
2022-08-28T05:30:45.848Z,13.85
2022-08-28T05:33:14.694Z,13.85
2022-08-28T05:35:45.316Z,12.50
2022-08-28T05:38:13.979Z,13.30
2022-08-28T05:40:43.959Z,13.43
2022-08-28T05:43:13.681Z,12.27
2022-08-28T05:45:41.586Z,12.15
2022-08-28T05:48:11.582Z,13.77
2022-08-28T05:50:43.787Z,13.32
2022-08-28T05:53:15.491Z,14.85
2022-08-28T05:55:42.934Z,12.70
2022-08-28T05:58:29.853Z,12.00
2022-08-28T06:01:05.034Z,12.70
2022-08-28T06:03:32.364Z,13.27
2022-08-28T06:06:00.588Z,12.13
2022-08-28T06:08:28.959Z,12.80
2022-08-28T06:10:56.767Z,11.68
2022-08-28T06:13:24.621Z,14.30
2022-08-28T06:15:52.009Z,13.85
2022-08-28T06:18:19.200Z,11.93
2022-08-28T06:20:49.299Z,14.57
2022-08-28T06:23:23.864Z,10.48
2022-08-28T06:25:52.471Z,12.30
2022-08-28T06:28:22.630Z,11.00
2022-08-28T06:31:17.818Z,11.32
2022-08-28T06:33:38.861Z,11.45
2022-08-28T06:36:07.714Z,13.27
2022-08-28T06:38:35.065Z,11.73
2022-08-28T06:41:02.972Z,12.27
2022-08-28T06:43:30.421Z,12.52
2022-08-28T06:45:58.410Z,12.40
2022-08-28T06:48:28.477Z,12.82
2022-08-28T06:50:58.026Z,13.07
2022-08-28T06:53:29.527Z,12.65
2022-08-28T06:56:02.704Z,11.73
2022-08-28T06:58:31.221Z,12.88
2022-08-28T07:01:03.186Z,14.75
2022-08-28T07:03:30.676Z,13.57
2022-08-28T07:05:59.599Z,15.82
2022-08-28T07:08:28.490Z,15.27
2022-08-28T07:10:56.906Z,15.32
2022-08-28T07:13:25.126Z,16.75
2022-08-28T07:15:52.764Z,16.02
2022-08-28T07:18:19.945Z,14.88
2022-08-28T07:20:56.209Z,16.52
2022-08-28T07:23:24.154Z,15.32
2022-08-28T07:25:51.374Z,14.95
2022-08-28T07:28:18.875Z,14.23
2022-08-28T07:30:46.331Z,15.15
2022-08-28T07:33:14.423Z,14.43
2022-08-28T07:35:44.616Z,14.27
2022-08-28T07:38:11.957Z,14.95
2022-08-28T07:40:39.302Z,14.25
2022-08-28T07:43:26.299Z,13.48
2022-08-28T07:46:03.999Z,15.15
2022-08-28T07:48:31.490Z,12.65
2022-08-28T07:50:59.087Z,12.13
2022-08-28T07:53:26.261Z,15.43
2022-08-28T07:55:53.477Z,10.18
2022-08-28T07:58:22.002Z,11.95
2022-08-28T08:00:49.248Z,11.30
2022-08-28T08:03:16.862Z,12.63
2022-08-28T08:05:53.266Z,11.05
2022-08-28T08:08:21.774Z,9.85
2022-08-28T08:11:02.474Z,11.85
2022-08-28T08:13:31.709Z,10.05
2022-08-28T08:16:14.239Z,10.30
2022-08-28T08:18:42.022Z,9.82
2022-08-28T08:21:11.920Z,10.95
2022-08-28T08:23:40.783Z,9.70
2022-08-28T08:26:11.416Z,9.40
2022-08-28T08:28:40.738Z,10.38
2022-08-28T08:31:11.943Z,8.98
2022-08-28T08:33:42.739Z,9.43
2022-08-28T08:36:12.381Z,8.93
2022-08-28T08:38:39.866Z,10.10
2022-08-28T08:41:22.209Z,9.75
2022-08-28T08:44:00.832Z,11.23
2022-08-28T08:46:44.767Z,9.00
2022-08-28T08:49:19.968Z,10.13
2022-08-28T08:51:59.066Z,9.23
2022-08-28T08:54:26.255Z,9.57
2022-08-28T08:56:56.335Z,11.60
2022-08-28T08:59:27.444Z,10.43
2022-08-28T09:02:14.630Z,8.88
2022-08-28T09:04:49.524Z,8.50
2022-08-28T09:07:18.343Z,9.30
2022-08-28T09:09:50.754Z,8.43
2022-08-28T09:12:23.378Z,8.98
2022-08-28T09:14:53.819Z,10.38
2022-08-28T09:17:27.733Z,9.48
2022-08-28T09:22:23.118Z,9.85
2022-08-28T09:24:52.054Z,10.15
2022-08-28T09:27:29.542Z,11.25
2022-08-28T09:29:59.703Z,8.02
2022-08-28T09:32:41.717Z,8.07
2022-08-28T09:35:27.183Z,8.98
2022-08-28T09:37:55.677Z,8.65
2022-08-28T09:40:23.919Z,10.25
2022-08-28T09:43:34.354Z,7.68
2022-08-28T09:46:16.680Z,13.18
2022-08-28T09:48:47.469Z,10.15
2022-08-28T09:51:29.575Z,9.40
2022-08-28T09:54:02.250Z,7.97
2022-08-28T09:56:34.851Z,9.75
2022-08-28T09:59:12.210Z,10.32
2022-08-28T10:01:53.416Z,10.10
2022-08-28T10:04:48.751Z,13.82
2022-08-28T10:07:35.926Z,8.50
2022-08-28T10:10:30.438Z,7.43
2022-08-28T10:13:18.849Z,8.35
2022-08-28T10:15:48.161Z,8.32
2022-08-28T10:18:55.355Z,10.88
2022-08-28T10:21:37.068Z,9.63
2022-08-28T10:24:09.018Z,11.38
2022-08-28T10:26:50.892Z,9.27
2022-08-28T10:29:34.604Z,9.88
2022-08-28T10:32:16.703Z,7.78
2022-08-28T10:34:58.558Z,8.90
2022-08-28T10:37:52.522Z,11.00
2022-08-28T10:40:24.524Z,8.15
2022-08-28T10:43:02.444Z,10.18
2022-08-28T10:45:32.411Z,11.52
2022-08-28T10:48:07.551Z,10.27
2022-08-28T10:50:44.510Z,9.73
2022-08-28T10:53:18.255Z,9.60
2022-08-28T10:56:03.106Z,11.50
2022-08-28T10:58:33.996Z,8.48
2022-08-28T11:01:07.773Z,7.97
2022-08-28T11:06:23.003Z,8.60
2022-08-28T11:08:55.088Z,9.57
2022-08-28T11:11:45.289Z,11.90
2022-08-28T11:14:25.912Z,11.40
2022-08-28T11:16:57.214Z,9.30
2022-08-28T11:19:34.812Z,10.70
2022-08-28T11:22:16.179Z,8.25
2022-08-28T11:24:49.537Z,8.23
2022-08-28T11:27:20.218Z,10.48
2022-08-28T11:30:11.098Z,11.90
2022-08-28T11:32:57.450Z,8.65
2022-08-28T11:35:31.391Z,11.75
2022-08-28T11:37:58.699Z,10.30
2022-08-28T11:40:30.399Z,9.27
2022-08-28T11:43:15.888Z,10.15
2022-08-28T11:45:46.599Z,10.18
2022-08-28T11:48:39.532Z,13.02
2022-08-28T11:51:11.917Z,10.65
2022-08-28T11:54:18.827Z,10.50
2022-08-28T11:57:08.375Z,8.50
2022-08-28T12:00:05.317Z,12.30
2022-08-28T12:02:39.957Z,10.52
2022-08-28T12:05:07.324Z,7.55
2022-08-28T12:07:40.707Z,7.78
2022-08-28T12:10:23.464Z,11.15
2022-08-28T12:13:00.834Z,10.07
2022-08-28T12:15:27.920Z,9.95
2022-08-28T12:17:59.684Z,9.35
2022-08-28T12:20:54.853Z,8.35
2022-08-28T12:23:41.424Z,11.93
2022-08-28T12:26:19.773Z,8.95
2022-08-28T12:29:08.067Z,8.32
2022-08-28T12:32:18.883Z,8.20
2022-08-28T12:34:50.384Z,8.90
2022-08-28T12:37:51.042Z,9.15
2022-08-28T12:40:22.134Z,9.55
2022-08-28T12:42:55.059Z,11.82
2022-08-28T12:45:29.496Z,15.43
2022-08-28T12:48:00.797Z,9.77
2022-08-28T12:50:32.637Z,8.10
2022-08-28T12:53:03.867Z,9.07
2022-08-28T12:55:32.764Z,8.38
2022-08-28T12:58:00.265Z,10.30
2022-08-28T13:00:35.471Z,9.70
2022-08-28T13:03:07.379Z,8.23
2022-08-28T13:05:39.750Z,7.93
2022-08-28T13:08:11.180Z,9.82
2022-08-28T13:10:48.725Z,9.48
2022-08-28T13:13:37.087Z,9.70
2022-08-28T13:16:10.817Z,10.18
2022-08-28T13:18:42.762Z,10.45
2022-08-28T13:21:14.434Z,8.98
2022-08-28T13:23:42.401Z,10.02
2022-08-28T13:26:11.720Z,10.05
2022-08-28T13:28:42.723Z,11.13
2022-08-28T13:31:29.011Z,10.95
2022-08-28T13:34:22.599Z,8.93
2022-08-28T13:36:53.057Z,8.45
2022-08-28T13:39:22.928Z,11.95
2022-08-28T13:41:54.219Z,15.82
2022-08-28T13:44:40.814Z,9.52
2022-08-28T13:47:07.921Z,10.93
2022-08-28T13:49:35.753Z,9.07
2022-08-28T13:52:06.984Z,12.20
2022-08-28T13:54:35.065Z,10.13
2022-08-28T13:57:03.379Z,9.05
2022-08-28T13:59:31.521Z,8.10
2022-08-28T14:02:24.475Z,9.15
2022-08-28T14:04:51.760Z,8.73
2022-08-28T14:07:19.146Z,8.30
2022-08-28T14:09:46.407Z,10.02
2022-08-28T14:12:14.528Z,9.02
2022-08-28T14:14:42.526Z,8.50
2022-08-28T14:17:10.628Z,8.85
2022-08-28T14:19:38.261Z,7.50
2022-08-28T14:22:06.089Z,8.40
2022-08-28T14:24:33.229Z,8.20
2022-08-28T14:27:00.652Z,9.27
2022-08-28T14:29:27.771Z,6.88
2022-08-28T14:31:55.053Z,9.57
2022-08-28T14:34:23.028Z,7.93
2022-08-28T14:36:50.972Z,8.07
2022-08-28T14:39:18.291Z,7.50
2022-08-28T14:41:46.950Z,9.38
2022-08-28T14:44:14.720Z,7.82
2022-08-28T14:46:44.840Z,8.10
2022-08-28T14:49:17.194Z,10.55
2022-08-28T14:51:45.776Z,8.23
2022-08-28T14:54:15.890Z,8.60
2022-08-28T14:56:44.262Z,11.73
2022-08-28T14:59:17.630Z,8.43
2022-08-28T15:01:48.425Z,9.90
2022-08-28T15:04:18.595Z,7.57
2022-08-28T15:06:46.200Z,10.00
2022-08-28T15:09:14.105Z,10.60
2022-08-28T15:11:42.600Z,8.80
2022-08-28T15:14:11.205Z,11.65
2022-08-28T15:16:43.677Z,10.20
2022-08-28T15:19:13.464Z,10.20
2022-08-28T15:21:44.739Z,7.80
2022-08-28T15:24:13.971Z,11.00
2022-08-28T15:26:41.402Z,9.18
2022-08-28T15:29:10.848Z,9.98
2022-08-28T15:31:42.490Z,10.23
2022-08-28T15:34:13.828Z,9.57
2022-08-28T15:36:42.683Z,8.68
2022-08-28T15:39:30.488Z,8.73
2022-08-28T15:41:58.435Z,9.20
2022-08-28T15:44:26.021Z,8.75
2022-08-28T15:47:02.592Z,8.70
2022-08-28T15:49:32.315Z,9.68
2022-08-28T15:52:04.010Z,9.73
2022-08-28T15:54:32.179Z,7.20
2022-08-28T15:56:59.276Z,9.57
2022-08-28T15:59:38.014Z,7.78
2022-08-28T16:02:14.692Z,9.02
2022-08-28T16:04:42.019Z,8.95
2022-08-28T16:07:09.493Z,9.80
2022-08-28T16:09:36.922Z,7.78
2022-08-28T16:12:04.377Z,8.27
2022-08-28T16:14:33.237Z,8.38
2022-08-28T16:17:05.815Z,10.45
2022-08-28T16:19:40.004Z,7.65
2022-08-28T16:22:08.176Z,14.05
2022-08-28T16:24:35.434Z,8.82
2022-08-28T16:27:03.138Z,7.60
2022-08-28T16:29:30.395Z,7.70
2022-08-28T16:31:57.767Z,7.70
2022-08-28T16:34:30.773Z,7.75
2022-08-28T16:36:59.858Z,8.23
2022-08-28T16:39:27.667Z,8.20
2022-08-28T16:41:54.915Z,7.85
2022-08-28T16:44:25.778Z,8.68
2022-08-28T16:46:54.202Z,6.82
2022-08-28T16:49:22.719Z,5.80
2022-08-28T16:51:50.271Z,8.75
2022-08-28T16:54:18.363Z,6.50
2022-08-28T16:56:46.359Z,6.47
2022-08-28T16:59:16.617Z,10.25
2022-08-28T17:01:44.025Z,8.32
2022-08-28T17:04:12.412Z,10.65
2022-08-28T17:06:40.175Z,5.75
2022-08-28T17:09:07.527Z,7.53
2022-08-28T17:11:35.714Z,9.88
2022-08-28T17:14:02.946Z,19.30
2022-08-28T17:16:31.652Z,6.45
2022-08-28T17:18:59.478Z,6.47
2022-08-28T17:21:46.565Z,6.78
2022-08-28T17:24:13.904Z,6.18
2022-08-28T17:26:43.968Z,8.77
2022-08-28T17:29:11.333Z,9.43
2022-08-28T17:31:39.653Z,7.97
2022-08-28T17:34:07.810Z,5.78
2022-08-28T17:36:37.236Z,5.40
2022-08-28T17:39:09.054Z,4.40
2022-08-28T17:41:36.590Z,6.65
2022-08-28T17:44:05.177Z,5.70
2022-08-28T17:46:37.503Z,10.15
2022-08-28T17:49:07.238Z,9.45
2022-08-28T17:51:42.135Z,10.88
2022-08-28T17:54:12.375Z,6.72
2022-08-28T17:56:40.749Z,6.82
2022-08-28T17:59:08.215Z,7.38
2022-08-28T18:01:36.156Z,8.52
2022-08-28T18:04:05.195Z,7.28
2022-08-28T18:06:33.202Z,7.75
2022-08-28T18:09:02.919Z,9.55
2022-08-28T18:11:30.318Z,7.68
2022-08-28T18:13:57.610Z,9.07
2022-08-28T18:16:30.343Z,7.47
2022-08-28T18:18:59.390Z,9.97
2022-08-28T18:21:27.668Z,8.25
2022-08-28T18:23:55.051Z,5.97
2022-08-28T18:26:22.673Z,8.65
2022-08-28T18:28:51.210Z,7.90
2022-08-28T18:31:18.717Z,8.15
2022-08-28T18:33:47.268Z,10.50
2022-08-28T18:36:15.431Z,6.28
2022-08-28T18:38:43.827Z,5.75
2022-08-28T18:41:12.443Z,8.38
2022-08-28T18:43:40.906Z,8.35
2022-08-28T18:46:09.626Z,5.13
2022-08-28T18:48:38.336Z,6.88
2022-08-28T18:51:08.816Z,5.65
2022-08-28T18:53:36.666Z,6.53
2022-08-28T18:56:08.350Z,9.38
2022-08-28T18:58:42.602Z,7.05
2022-08-28T19:01:12.637Z,8.90
2022-08-28T19:03:39.771Z,6.68
2022-08-28T19:06:07.546Z,9.60
2022-08-28T19:08:36.879Z,8.23
2022-08-28T19:11:09.461Z,5.85
2022-08-28T19:13:36.833Z,6.63
2022-08-28T19:16:04.584Z,8.55
2022-08-28T19:18:32.131Z,5.80
2022-08-28T19:21:14.852Z,5.57
2022-08-28T19:23:55.496Z,5.85
2022-08-28T19:26:24.796Z,4.57
2022-08-28T19:28:52.290Z,7.53
2022-08-28T19:31:19.693Z,6.10
2022-08-28T19:33:47.783Z,4.97
2022-08-28T19:36:15.692Z,4.90
2022-08-28T19:38:43.490Z,6.70
2022-08-28T19:41:12.051Z,4.97
2022-08-28T19:43:43.219Z,7.05
2022-08-28T19:46:18.367Z,4.85
2022-08-28T19:48:49.766Z,4.95
2022-08-28T19:51:23.379Z,3.92
2022-08-28T19:53:57.196Z,4.35
2022-08-28T19:56:27.563Z,5.47
2022-08-28T19:58:57.586Z,4.25
2022-08-28T20:01:26.079Z,4.82
2022-08-28T20:03:53.265Z,7.95
2022-08-28T20:06:20.393Z,4.68
2022-08-28T20:08:47.799Z,4.35
2022-08-28T20:11:24.623Z,5.75
2022-08-28T20:13:57.101Z,3.92
2022-08-28T20:16:28.348Z,5.13
2022-08-28T20:18:57.792Z,4.35
2022-08-28T20:21:25.935Z,4.57
2022-08-28T20:24:10.981Z,3.55
2022-08-28T20:26:38.391Z,5.10
2022-08-28T20:29:08.568Z,6.68
2022-08-28T20:31:40.484Z,3.33
2022-08-28T20:34:09.220Z,4.40
2022-08-28T20:36:36.583Z,4.93
2022-08-28T20:39:07.535Z,6.63
2022-08-28T20:41:37.083Z,3.53
2022-08-28T20:44:08.013Z,5.15
2022-08-28T20:46:40.695Z,5.88
2022-08-28T20:49:10.253Z,5.90
2022-08-28T20:51:53.459Z,7.60
2022-08-28T20:54:22.915Z,5.85
2022-08-28T20:56:51.652Z,6.78
2022-08-28T20:59:19.923Z,5.60
2022-08-28T21:01:49.156Z,5.38
2022-08-28T21:04:17.310Z,5.28
2022-08-28T21:06:46.680Z,6.97
2022-08-28T21:09:15.110Z,5.43
2022-08-28T21:11:44.049Z,6.38
2022-08-28T21:14:11.251Z,7.05
2022-08-28T21:16:40.461Z,6.70
2022-08-28T21:19:16.794Z,4.97
2022-08-28T21:21:45.407Z,7.97
2022-08-28T21:24:15.663Z,4.57
2022-08-28T21:26:45.241Z,8.05
2022-08-28T21:29:14.886Z,5.07
2022-08-28T21:31:44.855Z,7.50
2022-08-28T21:34:12.372Z,6.45
2022-08-28T21:36:49.505Z,7.65
2022-08-28T21:39:20.849Z,7.22
2022-08-28T21:41:49.378Z,8.13
2022-08-28T21:44:17.332Z,6.35
2022-08-28T21:46:44.904Z,7.32
2022-08-28T21:49:12.502Z,5.45
2022-08-28T21:51:39.794Z,7.38
2022-08-28T21:54:07.100Z,10.25
2022-08-28T21:56:34.314Z,6.95
2022-08-28T21:59:01.904Z,8.15
2022-08-28T22:01:29.191Z,9.05
2022-08-28T22:03:57.124Z,8.73
2022-08-28T22:06:26.231Z,7.28
2022-08-28T22:08:54.178Z,6.35
2022-08-28T22:11:25.300Z,7.53
2022-08-28T22:13:57.146Z,5.72
2022-08-28T22:16:26.334Z,6.80
2022-08-28T22:18:53.474Z,7.07
2022-08-28T22:21:43.901Z,7.68
2022-08-28T22:24:12.695Z,5.70
2022-08-28T22:26:42.195Z,7.43
2022-08-28T22:29:10.172Z,6.38
2022-08-28T22:31:38.297Z,9.65
2022-08-28T22:34:13.093Z,7.55
2022-08-28T22:36:40.331Z,12.10
2022-08-28T22:39:07.626Z,9.60
2022-08-28T22:41:37.784Z,8.52
2022-08-28T22:44:05.128Z,11.52
2022-08-28T22:46:32.339Z,11.20
2022-08-28T22:48:59.618Z,11.50
2022-08-28T22:51:26.882Z,8.93
2022-08-28T22:53:54.720Z,11.07
2022-08-28T22:56:22.184Z,9.52
2022-08-28T22:58:49.398Z,8.57
2022-08-28T23:01:25.814Z,9.07
2022-08-28T23:03:53.474Z,11.07
2022-08-28T23:06:21.774Z,8.77
2022-08-28T23:08:49.435Z,11.93
2022-08-28T23:11:17.128Z,9.02
2022-08-28T23:13:44.571Z,9.27
2022-08-28T23:16:12.162Z,7.00
2022-08-28T23:19:06.167Z,9.50
2022-08-28T23:21:28.571Z,9.80
2022-08-28T23:23:56.071Z,8.40
2022-08-28T23:26:24.708Z,7.07
2022-08-28T23:28:52.621Z,11.82
2022-08-28T23:31:20.055Z,9.45
2022-08-28T23:33:48.812Z,10.65
2022-08-28T23:36:16.279Z,7.90
2022-08-28T23:38:45.903Z,10.57
2022-08-28T23:41:13.534Z,13.43
2022-08-28T23:43:41.049Z,10.65
2022-08-28T23:46:09.440Z,8.23
2022-08-28T23:48:41.112Z,11.68
2022-08-28T23:51:10.907Z,11.57
2022-08-28T23:53:40.784Z,12.02
2022-08-28T23:56:08.123Z,9.02
2022-08-28T23:58:35.515Z,7.05
